createdAt,value
2022-11-24T00:01:44.712Z,54.73
2022-11-24T00:06:47.506Z,50.50
2022-11-24T00:11:51.580Z,52.20
2022-11-24T00:16:54.373Z,45.70
2022-11-24T00:21:57.157Z,46.90
2022-11-24T00:27:01.234Z,45.50
2022-11-24T00:32:06.441Z,45.10
2022-11-24T00:37:09.195Z,48.53
2022-11-24T00:42:14.204Z,49.60
2022-11-24T00:47:17.079Z,44.30
2022-11-24T00:52:19.833Z,45.43
2022-11-24T00:57:23.881Z,51.43
2022-11-24T01:02:27.403Z,43.73
2022-11-24T01:07:30.292Z,44.33
2022-11-24T01:12:35.985Z,38.83
2022-11-24T01:17:38.805Z,44.20
2022-11-24T01:22:42.293Z,42.87
2022-11-24T01:27:46.417Z,41.67
2022-11-24T01:32:49.195Z,41.43
2022-11-24T01:37:51.986Z,48.50
2022-11-24T01:42:56.050Z,47.37
2022-11-24T01:47:59.071Z,46.73
2022-11-24T01:53:01.952Z,39.37
2022-11-24T01:58:08.791Z,36.93
2022-11-24T02:03:15.361Z,38.90
2022-11-24T02:08:31.748Z,32.77
2022-11-24T02:13:38.801Z,39.10
2022-11-24T02:18:42.905Z,40.60
2022-11-24T02:23:55.876Z,38.37
2022-11-24T02:29:00.515Z,36.23
2022-11-24T02:34:03.286Z,41.97
2022-11-24T02:39:07.067Z,34.20
2022-11-24T02:44:11.754Z,35.57
2022-11-24T02:49:15.601Z,38.93
2022-11-24T02:54:18.369Z,40.33
2022-11-24T02:59:22.521Z,43.13
2022-11-24T03:04:25.262Z,39.00
2022-11-24T03:09:28.289Z,37.33
2022-11-24T03:14:32.786Z,36.70
2022-11-24T03:19:35.701Z,32.87
2022-11-24T03:24:38.436Z,36.37
2022-11-24T03:29:42.539Z,43.80
2022-11-24T03:34:45.307Z,41.50
2022-11-24T03:39:48.063Z,40.17
2022-11-24T03:44:52.162Z,45.70
2022-11-24T03:49:54.897Z,41.03
2022-11-24T03:54:57.648Z,48.83
2022-11-24T04:00:01.703Z,50.97
2022-11-24T04:05:04.675Z,48.97
2022-11-24T04:10:08.477Z,48.00
2022-11-24T04:15:14.032Z,49.77
2022-11-24T04:20:17.806Z,48.13
2022-11-24T04:25:20.666Z,50.27
2022-11-24T04:30:26.038Z,48.03
2022-11-24T04:35:28.836Z,46.40
2022-11-24T04:40:31.578Z,47.67
2022-11-24T04:45:35.700Z,45.53
2022-11-24T04:50:39.806Z,49.13
2022-11-24T04:55:42.546Z,48.40
2022-11-24T05:00:46.575Z,49.40
2022-11-24T05:05:49.317Z,50.77
2022-11-24T05:10:52.092Z,56.63
2022-11-24T05:15:57.152Z,76.73
2022-11-24T05:21:00.152Z,56.10
2022-11-24T05:26:03.607Z,48.87
2022-11-24T05:31:07.764Z,46.37
2022-11-24T05:36:32.007Z,44.50
2022-11-24T05:41:34.768Z,50.30
2022-11-24T05:46:39.247Z,50.17
2022-11-24T05:51:42.081Z,48.70
2022-11-24T05:56:44.834Z,53.87
2022-11-24T06:01:49.111Z,52.80
2022-11-24T06:06:51.952Z,46.47
2022-11-24T06:11:54.740Z,50.43
2022-11-24T06:16:58.851Z,53.50
2022-11-24T06:22:01.858Z,49.80
2022-11-24T06:27:04.613Z,49.83
2022-11-24T06:32:09.130Z,44.80
2022-11-24T06:37:12.351Z,44.40
2022-11-24T06:42:18.734Z,47.10
2022-11-24T06:47:22.824Z,47.20
2022-11-24T06:52:25.562Z,52.07
2022-11-24T06:57:29.537Z,44.90
2022-11-24T07:02:33.721Z,42.77
2022-11-24T07:07:36.532Z,52.10
2022-11-24T07:12:39.379Z,57.03
2022-11-24T07:17:43.495Z,54.63
2022-11-24T07:22:46.241Z,49.40
2022-11-24T07:27:48.977Z,49.50
2022-11-24T07:32:53.339Z,55.73
2022-11-24T07:37:56.656Z,50.67
2022-11-24T07:43:03.286Z,46.17
2022-11-24T07:48:10.191Z,44.90
2022-11-24T07:53:12.932Z,48.20
2022-11-24T07:58:18.286Z,41.97
2022-11-24T08:03:22.776Z,47.90
2022-11-24T08:08:25.798Z,50.07
2022-11-24T08:13:28.570Z,44.20
2022-11-24T08:18:32.635Z,52.47
2022-11-24T08:23:35.875Z,43.37
2022-11-24T08:28:38.949Z,40.90
2022-11-24T08:33:43.662Z,38.20
2022-11-24T08:38:47.104Z,37.97
2022-11-24T08:43:49.954Z,37.57
2022-11-24T08:48:55.814Z,42.37
2022-11-24T08:53:59.832Z,42.63
2022-11-24T08:59:03.219Z,41.60
2022-11-24T09:04:07.558Z,31.17
2022-11-24T09:09:12.845Z,36.87
2022-11-24T09:14:15.693Z,34.77
2022-11-24T09:19:19.784Z,39.63
2022-11-24T09:24:22.726Z,36.67
2022-11-24T09:29:25.653Z,37.30
2022-11-24T09:34:29.961Z,33.87
2022-11-24T09:39:33.043Z,36.57
2022-11-24T09:44:52.088Z,34.63
2022-11-24T09:50:01.559Z,38.43
2022-11-24T09:55:12.446Z,34.67
2022-11-24T10:00:16.170Z,32.80
2022-11-24T10:05:21.081Z,31.30
2022-11-24T10:10:30.732Z,35.77
2022-11-24T10:15:46.095Z,32.13
2022-11-24T10:27:11.759Z,66.20
2022-11-24T10:32:19.615Z,38.67
2022-11-24T10:37:29.475Z,30.83
2022-11-24T10:42:35.184Z,33.80
2022-11-24T10:47:38.341Z,27.63
2022-11-24T10:52:46.117Z,28.77
2022-11-24T10:57:48.875Z,27.80
2022-11-24T11:03:11.062Z,30.10
2022-11-24T11:08:26.806Z,31.83
2022-11-24T11:13:31.294Z,36.03
2022-11-24T11:18:34.891Z,32.73
2022-11-24T11:23:40.056Z,29.57
2022-11-24T11:28:42.816Z,30.83
2022-11-24T11:34:05.336Z,27.13
2022-11-24T11:39:23.813Z,29.80
2022-11-24T11:44:35.615Z,26.73
2022-11-24T11:49:40.270Z,30.20
2022-11-24T11:55:06.063Z,26.07
2022-11-24T12:00:13.813Z,31.70
2022-11-24T12:05:25.908Z,29.80
2022-11-24T12:10:37.989Z,31.37
2022-11-24T12:15:45.348Z,26.77
2022-11-24T12:21:02.052Z,33.97
2022-11-24T12:26:11.851Z,27.40
2022-11-24T12:31:21.732Z,32.03
2022-11-24T12:36:37.968Z,32.03
2022-11-24T12:41:58.639Z,42.10
2022-11-24T12:47:12.439Z,32.33
2022-11-24T12:52:23.535Z,30.77
2022-11-24T12:57:33.753Z,30.13
2022-11-24T13:02:52.447Z,27.83
2022-11-24T13:07:58.612Z,30.37
2022-11-24T13:13:04.799Z,31.73
2022-11-24T13:24:02.972Z,26.27
2022-11-24T13:29:24.453Z,28.63
2022-11-24T13:35:17.594Z,28.73
2022-11-24T13:41:27.026Z,25.90
2022-11-24T13:47:03.555Z,31.00
2022-11-24T13:52:41.262Z,29.80
2022-11-24T13:57:47.292Z,25.93
2022-11-24T14:02:50.861Z,26.30
2022-11-24T14:07:54.497Z,32.03
2022-11-24T14:13:34.153Z,30.07
2022-11-24T14:18:40.304Z,28.70
2022-11-24T14:23:44.947Z,29.80
2022-11-24T14:28:48.513Z,34.83
2022-11-24T14:34:13.856Z,29.90
2022-11-24T14:39:18.398Z,31.13
2022-11-24T14:44:24.918Z,30.93
2022-11-24T14:49:29.272Z,36.30
2022-11-24T14:54:33.060Z,30.87
2022-11-24T14:59:38.185Z,33.23
2022-11-24T15:05:04.775Z,37.47
2022-11-24T15:10:19.353Z,34.63
2022-11-24T15:15:29.669Z,40.33
2022-11-24T15:20:36.026Z,33.80
2022-11-24T15:25:39.174Z,41.37
2022-11-24T15:30:42.105Z,37.47
2022-11-24T15:35:46.678Z,39.20
2022-11-24T15:40:51.772Z,43.30
2022-11-24T15:45:54.761Z,40.23
2022-11-24T15:51:00.046Z,33.83
2022-11-24T15:56:04.686Z,34.80
2022-11-24T16:01:07.667Z,38.27
2022-11-24T16:06:15.021Z,35.30
2022-11-24T16:11:19.622Z,39.33
2022-11-24T16:16:23.561Z,38.50
2022-11-24T16:21:27.844Z,44.03
2022-11-24T16:26:30.544Z,45.90
2022-11-24T16:31:33.541Z,41.43
2022-11-24T16:36:40.119Z,46.27
2022-11-24T16:41:47.463Z,46.47
2022-11-24T16:46:50.248Z,42.30
2022-11-24T16:51:54.358Z,45.57
2022-11-24T16:56:57.151Z,43.43
2022-11-24T17:02:00.346Z,44.77
2022-11-24T17:07:04.477Z,60.80
2022-11-24T17:12:07.470Z,56.93
2022-11-24T17:17:10.382Z,58.37
2022-11-24T17:22:14.637Z,73.13
2022-11-24T17:27:17.702Z,75.87
2022-11-24T17:32:20.607Z,69.77
2022-11-24T17:37:26.937Z,58.20
2022-11-24T17:42:30.092Z,51.03
2022-11-24T17:47:32.882Z,55.53
2022-11-24T17:52:36.984Z,49.50
2022-11-24T17:57:39.712Z,43.83
2022-11-24T18:02:42.476Z,49.13
2022-11-24T18:07:46.799Z,42.80
2022-11-24T18:12:50.043Z,50.03
2022-11-24T18:17:53.316Z,47.30
2022-11-24T18:23:05.543Z,53.47
2022-11-24T18:28:09.204Z,44.13
2022-11-24T18:33:12.083Z,48.40
2022-11-24T18:38:16.220Z,42.67
2022-11-24T18:43:19.034Z,52.70
2022-11-24T18:48:24.150Z,53.40
2022-11-24T18:53:31.736Z,57.23
2022-11-24T18:58:36.525Z,58.63
2022-11-24T19:03:46.585Z,55.40
2022-11-24T19:08:54.812Z,55.90
2022-11-24T19:13:58.936Z,56.17
2022-11-24T19:19:04.427Z,51.87
2022-11-24T19:29:24.503Z,49.10
2022-11-24T19:34:27.373Z,45.67
2022-11-24T19:39:30.123Z,43.83
2022-11-24T19:44:34.465Z,39.53
2022-11-24T19:49:37.449Z,47.13
2022-11-24T19:54:40.521Z,55.10
2022-11-24T19:59:45.945Z,53.63
2022-11-24T20:04:48.890Z,51.50
2022-11-24T20:09:51.653Z,54.83
2022-11-24T20:14:57.056Z,44.60
2022-11-24T20:19:59.973Z,43.93
2022-11-24T20:25:02.839Z,38.03
2022-11-24T20:30:09.041Z,43.37
2022-11-24T20:35:17.852Z,42.50
2022-11-24T20:40:21.665Z,37.30
2022-11-24T20:45:25.822Z,40.13
2022-11-24T20:50:28.653Z,43.00
2022-11-24T20:55:33.473Z,41.70
2022-11-24T21:00:37.675Z,44.03
2022-11-24T21:05:40.550Z,43.77
2022-11-24T21:10:43.355Z,43.83
2022-11-24T21:15:55.891Z,48.47
2022-11-24T21:21:00.412Z,43.07
2022-11-24T21:26:05.672Z,40.20
2022-11-24T21:31:14.011Z,35.70
2022-11-24T21:36:18.815Z,42.17
2022-11-24T21:41:22.485Z,37.53
2022-11-24T21:46:26.715Z,47.80
2022-11-24T21:51:29.987Z,38.67
2022-11-24T21:56:32.797Z,36.97
2022-11-24T22:01:36.972Z,29.87
2022-11-24T22:06:39.745Z,39.63
2022-11-24T22:11:42.540Z,36.37
2022-11-24T22:16:47.039Z,39.23
2022-11-24T22:21:49.988Z,35.87
2022-11-24T22:26:52.744Z,32.40
2022-11-24T22:31:57.596Z,37.37
2022-11-24T22:37:00.486Z,39.70
2022-11-24T22:42:03.244Z,33.60
2022-11-24T22:47:07.354Z,31.30
2022-11-24T22:52:10.109Z,31.13
2022-11-24T22:57:12.887Z,35.03
2022-11-24T23:02:16.918Z,30.20
2022-11-24T23:07:19.752Z,35.03
2022-11-24T23:12:22.668Z,39.47
2022-11-24T23:17:26.830Z,36.23
2022-11-24T23:22:29.601Z,39.47
2022-11-24T23:27:32.346Z,36.10
2022-11-24T23:32:36.503Z,32.50
2022-11-24T23:38:06.084Z,36.23
2022-11-24T23:43:02.924Z,35.57
2022-11-24T23:48:08.465Z,36.70
2022-11-24T23:53:11.747Z,32.23
2022-11-24T23:58:14.482Z,32.63
